sensor_id;sensor_type;location;lat;lon;timestamp;temperature;humidity
11501;DHT22;5807;51.606;7.624;2022-12-29T17:36:42;10.10;99.90
11501;DHT22;5807;51.606;7.624;2022-12-29T17:39:09;10.80;99.90
11501;DHT22;5807;51.606;7.624;2022-12-29T17:41:37;10.10;99.90
11501;DHT22;5807;51.606;7.624;2022-12-29T17:44:05;10.70;99.90
11501;DHT22;5807;51.606;7.624;2022-12-29T17:46:32;10.20;99.90
11501;DHT22;5807;51.606;7.624;2022-12-29T18:03:46;7.20;99.90
11501;DHT22;5807;51.606;7.624;2022-12-29T18:06:13;7.20;99.90
11501;DHT22;5807;51.606;7.624;2022-12-29T18:08:40;7.40;99.90
11501;DHT22;5807;51.606;7.624;2022-12-29T18:11:18;8.20;99.90
11501;DHT22;5807;51.606;7.624;2022-12-29T18:13:45;7.30;99.90
11501;DHT22;5807;51.606;7.624;2022-12-29T18:16:14;7.10;99.90
11501;DHT22;5807;51.606;7.624;2022-12-29T18:18:41;7.10;99.90
11501;DHT22;5807;51.606;7.624;2022-12-29T18:21:14;7.70;99.90
11501;DHT22;5807;51.606;7.624;2022-12-29T18:23:41;7.30;99.90
11501;DHT22;5807;51.606;7.624;2022-12-29T18:26:13;7.40;99.90
11501;DHT22;5807;51.606;7.624;2022-12-29T18:28:41;7.20;99.90
11501;DHT22;5807;51.606;7.624;2022-12-29T18:31:16;7.60;99.90
11501;DHT22;5807;51.606;7.624;2022-12-29T18:33:44;7.80;99.90
11501;DHT22;5807;51.606;7.624;2022-12-29T18:36:11;7.40;99.90
11501;DHT22;5807;51.606;7.624;2022-12-29T18:38:39;7.30;99.90
11501;DHT22;5807;51.606;7.624;2022-12-29T18:41:08;7.30;99.90
11501;DHT22;5807;51.606;7.624;2022-12-29T18:43:38;7.20;99.90
11501;DHT22;5807;51.606;7.624;2022-12-29T18:46:05;7.20;99.90
11501;DHT22;5807;51.606;7.624;2022-12-29T18:48:33;7.40;99.90
11501;DHT22;5807;51.606;7.624;2022-12-29T18:51:00;7.30;99.90
11501;DHT22;5807;51.606;7.624;2022-12-29T18:53:26;7.00;99.90
11501;DHT22;5807;51.606;7.624;2022-12-29T18:55:53;7.20;99.90
11501;DHT22;5807;51.606;7.624;2022-12-29T18:58:22;6.90;99.90
11501;DHT22;5807;51.606;7.624;2022-12-29T19:00:48;7.20;99.90
11501;DHT22;5807;51.606;7.624;2022-12-29T19:03:16;7.30;99.90
11501;DHT22;5807;51.606;7.624;2022-12-29T19:05:46;7.30;99.90
11501;DHT22;5807;51.606;7.624;2022-12-29T19:08:13;7.00;99.90
11501;DHT22;5807;51.606;7.624;2022-12-29T19:10:40;6.80;99.90
11501;DHT22;5807;51.606;7.624;2022-12-29T19:13:13;6.70;99.90
11501;DHT22;5807;51.606;7.624;2022-12-29T19:15:40;6.80;99.90
11501;DHT22;5807;51.606;7.624;2022-12-29T19:18:09;6.90;99.90
11501;DHT22;5807;51.606;7.624;2022-12-29T19:20:40;6.60;99.90
11501;DHT22;5807;51.606;7.624;2022-12-29T19:23:11;7.30;99.90
11501;DHT22;5807;51.606;7.624;2022-12-29T19:25:38;7.10;99.90
11501;DHT22;5807;51.606;7.624;2022-12-29T19:28:06;6.90;99.90
11501;DHT22;5807;51.606;7.624;2022-12-29T19:30:37;6.80;99.90
11501;DHT22;5807;51.606;7.624;2022-12-29T19:33:04;6.70;99.90
11501;DHT22;5807;51.606;7.624;2022-12-29T19:35:31;7.00;99.90
11501;DHT22;5807;51.606;7.624;2022-12-29T19:37:58;6.80;99.90
11501;DHT22;5807;51.606;7.624;2022-12-29T19:40:26;7.50;99.90
11501;DHT22;5807;51.606;7.624;2022-12-29T19:42:55;7.10;99.90
11501;DHT22;5807;51.606;7.624;2022-12-29T19:45:22;7.10;99.90
11501;DHT22;5807;51.606;7.624;2022-12-29T19:47:49;6.90;99.90
11501;DHT22;5807;51.606;7.624;2022-12-29T19:50:16;6.80;99.90
11501;DHT22;5807;51.606;7.624;2022-12-29T19:52:43;7.50;99.90
11501;DHT22;5807;51.606;7.624;2022-12-29T19:55:12;6.90;99.90
11501;DHT22;5807;51.606;7.624;2022-12-29T19:57:41;7.30;99.90
11501;DHT22;5807;51.606;7.624;2022-12-29T20:00:12;7.00;99.90
11501;DHT22;5807;51.606;7.624;2022-12-29T20:02:40;7.00;99.90
11501;DHT22;5807;51.606;7.624;2022-12-29T20:05:07;7.80;99.90
11501;DHT22;5807;51.606;7.624;2022-12-29T20:07:35;7.10;99.90
11501;DHT22;5807;51.606;7.624;2022-12-29T20:10:03;7.00;99.90
11501;DHT22;5807;51.606;7.624;2022-12-29T20:12:30;7.10;99.90
11501;DHT22;5807;51.606;7.624;2022-12-29T20:14:58;7.30;99.90
11501;DHT22;5807;51.606;7.624;2022-12-29T20:17:25;7.80;99.90
11501;DHT22;5807;51.606;7.624;2022-12-29T20:19:52;7.30;99.90
11501;DHT22;5807;51.606;7.624;2022-12-29T20:22:19;7.40;99.90
11501;DHT22;5807;51.606;7.624;2022-12-29T20:24:47;7.30;99.90
11501;DHT22;5807;51.606;7.624;2022-12-29T20:27:13;7.60;99.90
11501;DHT22;5807;51.606;7.624;2022-12-29T20:29:41;8.00;99.90
11501;DHT22;5807;51.606;7.624;2022-12-29T20:32:11;7.50;99.90
11501;DHT22;5807;51.606;7.624;2022-12-29T20:34:39;7.60;99.90
11501;DHT22;5807;51.606;7.624;2022-12-29T20:37:06;7.40;99.90
11501;DHT22;5807;51.606;7.624;2022-12-29T20:39:34;8.40;99.90
11501;DHT22;5807;51.606;7.624;2022-12-29T20:42:01;7.60;99.90
11501;DHT22;5807;51.606;7.624;2022-12-29T20:44:29;7.50;99.90
11501;DHT22;5807;51.606;7.624;2022-12-29T20:46:56;7.50;99.90
11501;DHT22;5807;51.606;7.624;2022-12-29T20:49:24;7.50;99.90
11501;DHT22;5807;51.606;7.624;2022-12-29T20:51:51;7.40;99.90
11501;DHT22;5807;51.606;7.624;2022-12-29T20:54:19;7.70;99.90
11501;DHT22;5807;51.606;7.624;2022-12-29T20:56:46;7.60;99.90
11501;DHT22;5807;51.606;7.624;2022-12-29T20:59:13;8.00;99.90
11501;DHT22;5807;51.606;7.624;2022-12-29T21:01:40;7.60;99.90
11501;DHT22;5807;51.606;7.624;2022-12-29T21:04:07;7.60;99.90
11501;DHT22;5807;51.606;7.624;2022-12-29T21:06:36;7.60;99.90
11501;DHT22;5807;51.606;7.624;2022-12-29T21:09:03;8.70;99.90
11501;DHT22;5807;51.606;7.624;2022-12-29T21:11:31;7.50;99.90
11501;DHT22;5807;51.606;7.624;2022-12-29T21:13:58;7.40;99.90
11501;DHT22;5807;51.606;7.624;2022-12-29T21:16:25;7.20;99.90
11501;DHT22;5807;51.606;7.624;2022-12-29T21:18:51;7.30;99.90
11501;DHT22;5807;51.606;7.624;2022-12-29T21:21:20;7.40;99.90
11501;DHT22;5807;51.606;7.624;2022-12-29T21:23:49;7.40;99.90
11501;DHT22;5807;51.606;7.624;2022-12-29T21:26:18;7.30;99.90
11501;DHT22;5807;51.606;7.624;2022-12-29T21:28:45;7.50;99.90
11501;DHT22;5807;51.606;7.624;2022-12-29T21:31:22;8.20;99.90
11501;DHT22;5807;51.606;7.624;2022-12-29T21:33:49;7.90;99.90
11501;DHT22;5807;51.606;7.624;2022-12-29T21:36:17;7.50;99.90
11501;DHT22;5807;51.606;7.624;2022-12-29T21:38:44;7.40;99.90
11501;DHT22;5807;51.606;7.624;2022-12-29T21:41:14;7.50;99.90
11501;DHT22;5807;51.606;7.624;2022-12-29T21:43:41;7.20;99.90
11501;DHT22;5807;51.606;7.624;2022-12-29T21:46:28;8.60;99.90
11501;DHT22;5807;51.606;7.624;2022-12-29T21:48:54;8.00;99.90
11501;DHT22;5807;51.606;7.624;2022-12-29T21:51:21;7.40;99.90
11501;DHT22;5807;51.606;7.624;2022-12-29T21:54:05;8.50;99.90
11501;DHT22;5807;51.606;7.624;2022-12-29T21:56:47;8.20;99.90
11501;DHT22;5807;51.606;7.624;2022-12-29T21:59:15;7.40;99.90
11501;DHT22;5807;51.606;7.624;2022-12-29T22:01:59;6.00;99.90
11501;DHT22;5807;51.606;7.624;2022-12-29T22:04:44;7.30;99.90
11501;DHT22;5807;51.606;7.624;2022-12-29T22:07:28;7.10;99.90
11501;DHT22;5807;51.606;7.624;2022-12-29T22:10:12;6.90;99.90
11501;DHT22;5807;51.606;7.624;2022-12-29T22:12:59;7.10;99.90
11501;DHT22;5807;51.606;7.624;2022-12-29T22:15:29;7.20;99.90
11501;DHT22;5807;51.606;7.624;2022-12-29T22:17:56;7.00;99.90
11501;DHT22;5807;51.606;7.624;2022-12-29T22:20:25;7.00;99.90
11501;DHT22;5807;51.606;7.624;2022-12-29T22:22:53;7.20;99.90
11501;DHT22;5807;51.606;7.624;2022-12-29T22:25:20;7.20;99.90
11501;DHT22;5807;51.606;7.624;2022-12-29T22:27:47;7.40;99.90
11501;DHT22;5807;51.606;7.624;2022-12-29T22:30:16;7.20;99.90
11501;DHT22;5807;51.606;7.624;2022-12-29T22:32:43;6.90;99.90
11501;DHT22;5807;51.606;7.624;2022-12-29T22:35:11;7.30;99.90
11501;DHT22;5807;51.606;7.624;2022-12-29T22:37:39;7.00;99.90
11501;DHT22;5807;51.606;7.624;2022-12-29T22:40:09;7.00;99.90
11501;DHT22;5807;51.606;7.624;2022-12-29T22:42:36;7.10;99.90
11501;DHT22;5807;51.606;7.624;2022-12-29T22:45:04;7.20;99.90
11501;DHT22;5807;51.606;7.624;2022-12-29T22:47:32;7.00;99.90
11501;DHT22;5807;51.606;7.624;2022-12-29T22:49:59;7.00;99.90
11501;DHT22;5807;51.606;7.624;2022-12-29T22:52:26;7.30;99.90
11501;DHT22;5807;51.606;7.624;2022-12-29T22:54:55;6.50;99.90
11501;DHT22;5807;51.606;7.624;2022-12-29T22:57:21;7.20;99.90
11501;DHT22;5807;51.606;7.624;2022-12-29T22:59:48;8.00;99.90
11501;DHT22;5807;51.606;7.624;2022-12-29T23:02:15;7.30;99.90
11501;DHT22;5807;51.606;7.624;2022-12-29T23:04:43;7.30;99.90
11501;DHT22;5807;51.606;7.624;2022-12-29T23:07:10;7.30;99.90
11501;DHT22;5807;51.606;7.624;2022-12-29T23:09:37;7.40;99.90
11501;DHT22;5807;51.606;7.624;2022-12-29T23:12:04;7.10;99.90
11501;DHT22;5807;51.606;7.624;2022-12-29T23:14:31;7.00;99.90
11501;DHT22;5807;51.606;7.624;2022-12-29T23:16:58;7.00;99.90
11501;DHT22;5807;51.606;7.624;2022-12-29T23:19:24;7.10;99.90
11501;DHT22;5807;51.606;7.624;2022-12-29T23:21:52;7.10;99.90
11501;DHT22;5807;51.606;7.624;2022-12-29T23:24:19;6.90;99.90
11501;DHT22;5807;51.606;7.624;2022-12-29T23:26:46;7.00;99.90
11501;DHT22;5807;51.606;7.624;2022-12-29T23:29:15;7.10;99.90
11501;DHT22;5807;51.606;7.624;2022-12-29T23:31:42;6.80;99.90
11501;DHT22;5807;51.606;7.624;2022-12-29T23:34:10;6.90;99.90
11501;DHT22;5807;51.606;7.624;2022-12-29T23:36:38;7.50;99.90
11501;DHT22;5807;51.606;7.624;2022-12-29T23:39:07;7.10;99.90
11501;DHT22;5807;51.606;7.624;2022-12-29T23:41:34;7.00;99.90
11501;DHT22;5807;51.606;7.624;2022-12-29T23:44:01;7.10;99.90
11501;DHT22;5807;51.606;7.624;2022-12-29T23:46:28;7.00;99.90
11501;DHT22;5807;51.606;7.624;2022-12-29T23:48:56;7.10;99.90
11501;DHT22;5807;51.606;7.624;2022-12-29T23:51:23;7.20;99.90
11501;DHT22;5807;51.606;7.624;2022-12-29T23:53:50;7.10;99.90
11501;DHT22;5807;51.606;7.624;2022-12-29T23:56:20;7.30;99.90
11501;DHT22;5807;51.606;7.624;2022-12-29T23:58:47;7.00;99.90
